Time;durP1;ratioP1;P1;durP2;ratioP2;P2;SDS_P1;SDS_P2;PMS_P1;PMS_P2;Temp;Humidity;BMP_temperature;BMP_pressure;BME280_temperature;BME280_humidity;BME280_pressure;Samples;Min_cycle;Max_cycle;Signal;HPM_P1;HPM_P2
2022/03/06 00:04:10;;;;;;;30.4;38.3;;;;;;;0.1;74.3;99320;;;;
2022/03/06 00:14:10;;;;;;;30.4;38.3;;;;;;;0;74.6;99310;;;;
2022/03/06 00:24:10;;;;;;;30.4;38.3;;;;;;;-0.1;75;99310;;;;
2022/03/06 00:35:10;;;;;;;36.2;41.3;;;;;;;-0.1;75.6;99310;;;;
2022/03/06 00:45:10;;;;;;;36.2;41.3;;;;;;;0;75.4;99300;;;;
2022/03/06 00:55:10;;;;;;;36.2;41.3;;;;;;;-0.1;75.7;99310;;;;
2022/03/06 01:05:10;;;;;;;38.9;44.4;;;;;;;-0.1;76;99300;;;;
2022/03/06 01:16:10;;;;;;;38.9;44.4;;;;;;;-0.2;76.6;99290;;;;
2022/03/06 01:26:10;;;;;;;38.9;44.4;;;;;;;-0.2;76.6;99290;;;;
2022/03/06 01:36:10;;;;;;;38;45.1;;;;;;;-0.3;76.5;99290;;;;
2022/03/06 01:47:10;;;;;;;38;45.1;;;;;;;-0.2;76.3;99300;;;;
2022/03/06 01:58:10;;;;;;;37.2;46.7;;;;;;;-0.3;76.1;99300;;;;
2022/03/06 02:08:10;;;;;;;37.2;46.7;;;;;;;-0.4;76.5;99300;;;;
2022/03/06 02:18:10;;;;;;;37.2;46.7;;;;;;;-0.4;76.7;99300;;;;
2022/03/06 02:29:10;;;;;;;34.4;40.8;;;;;;;-0.4;76.6;99290;;;;
2022/03/06 02:40:10;;;;;;;34.4;40.8;;;;;;;-0.4;76.9;99280;;;;
2022/03/06 02:51:10;;;;;;;34.4;40.8;;;;;;;-0.5;77.1;99270;;;;
2022/03/06 03:01:10;;;;;;;34.8;39.2;;;;;;;-0.4;77.2;99270;;;;
2022/03/06 03:12:10;;;;;;;34.8;39.2;;;;;;;-0.5;77.5;99270;;;;
2022/03/06 03:23:10;;;;;;;34.8;39.2;;;;;;;-0.6;77.6;99280;;;;
2022/03/06 03:34:10;;;;;;;35;41.4;;;;;;;-0.5;77.3;99280;;;;
2022/03/06 03:45:10;;;;;;;35;41.4;;;;;;;-0.5;77;99290;;;;
2022/03/06 03:55:10;;;;;;;35;41.4;;;;;;;-0.5;77;99290;;;;
2022/03/06 04:06:10;;;;;;;36.2;48.5;;;;;;;-0.5;76.4;99290;;;;
2022/03/06 04:17:10;;;;;;;36.2;48.5;;;;;;;-0.5;75.8;99300;;;;
2022/03/06 04:27:10;;;;;;;33.4;39.9;;;;;;;-0.6;75.3;99300;;;;
2022/03/06 04:37:10;;;;;;;33.4;39.9;;;;;;;-0.5;74.4;99300;;;;
2022/03/06 04:47:10;;;;;;;33.4;39.9;;;;;;;-0.5;73.9;99300;;;;
2022/03/06 04:58:10;;;;;;;30.3;34.9;;;;;;;-0.5;73.8;99300;;;;
2022/03/06 05:09:10;;;;;;;30.3;34.9;;;;;;;-0.4;74.1;99300;;;;
2022/03/06 05:20:10;;;;;;;30.3;34.9;;;;;;;-0.5;74.6;99310;;;;
2022/03/06 05:30:10;;;;;;;28;33.5;;;;;;;-0.4;74.5;99310;;;;
2022/03/06 05:40:10;;;;;;;28;33.5;;;;;;;-0.5;74.8;99310;;;;
2022/03/06 05:51:10;;;;;;;28;33.5;;;;;;;-0.4;74.2;99300;;;;
2022/03/06 06:02:10;;;;;;;28.6;36.5;;;;;;;-0.3;73.1;99300;;;;
2022/03/06 06:13:14;;;;;;;28.6;36.5;;;;;;;-0.3;72.9;99300;;;;
2022/03/06 06:24:10;;;;;;;28.6;36.5;;;;;;;-0.4;72.4;99310;;;;
2022/03/06 06:35:10;;;;;;;26.4;33.5;;;;;;;-0.3;71.5;99310;;;;
2022/03/06 06:45:10;;;;;;;26.4;33.5;;;;;;;-0.3;69.1;99310;;;;
2022/03/06 06:55:10;;;;;;;26.4;33.5;;;;;;;-0.2;69.1;99320;;;;
2022/03/06 07:05:10;;;;;;;21.9;27.4;;;;;;;-0.2;68.6;99330;;;;
2022/03/06 07:16:10;;;;;;;21.9;27.4;;;;;;;-0.1;68;99340;;;;
2022/03/06 07:26:10;;;;;;;21.9;27.4;;;;;;;-0.2;68.3;99330;;;;
2022/03/06 07:37:10;;;;;;;19.3;23.1;;;;;;;0;67.6;99330;;;;
2022/03/06 07:47:10;;;;;;;19.3;23.1;;;;;;;0.2;66.9;99320;;;;
2022/03/06 07:58:10;;;;;;;16.1;20.3;;;;;;;0.2;65.2;99320;;;;
2022/03/06 08:08:10;;;;;;;16.1;20.3;;;;;;;0.4;64.3;99320;;;;
2022/03/06 08:19:10;;;;;;;16.1;20.3;;;;;;;0.3;63.6;99320;;;;
2022/03/06 08:29:10;;;;;;;11.2;14.6;;;;;;;0.5;62.2;99320;;;;
2022/03/06 08:39:10;;;;;;;11.2;14.6;;;;;;;0.6;60.9;99310;;;;
2022/03/06 08:49:10;;;;;;;11.2;14.6;;;;;;;0.6;60.2;99310;;;;
2022/03/06 09:00:10;;;;;;;9.3;14.5;;;;;;;0.8;59.5;99310;;;;
2022/03/06 09:11:10;;;;;;;9.3;14.5;;;;;;;0.9;58.8;99320;;;;
2022/03/06 09:21:10;;;;;;;9.3;14.5;;;;;;;1;58.6;99310;;;;
2022/03/06 09:32:10;;;;;;;7.8;10.6;;;;;;;1.1;58.3;99310;;;;
2022/03/06 09:43:10;;;;;;;7.8;10.6;;;;;;;0.9;59.7;99310;;;;
2022/03/06 09:53:10;;;;;;;7.8;10.6;;;;;;;1.1;58.1;99300;;;;
2022/03/06 10:04:10;;;;;;;7;9.6;;;;;;;1.5;57.4;99290;;;;
2022/03/06 10:15:13;;;;;;;7;9.6;;;;;;;1.9;56.8;99300;;;;
2022/03/06 10:26:10;;;;;;;7.2;12.6;;;;;;;1.7;56.3;99290;;;;
2022/03/06 10:36:10;;;;;;;7.2;12.6;;;;;;;1.6;56.1;99290;;;;
2022/03/06 10:47:10;;;;;;;7.2;12.6;;;;;;;1.7;55.2;99280;;;;
2022/03/06 10:57:10;;;;;;;11.8;15;;;;;;;1.7;55;99280;;;;
2022/03/06 11:07:10;;;;;;;11.8;15;;;;;;;1.8;53.4;99270;;;;
2022/03/06 11:17:10;;;;;;;11.8;15;;;;;;;1.8;53.4;99250;;;;
2022/03/06 11:28:10;;;;;;;6.8;9.2;;;;;;;2;53.7;99240;;;;
2022/03/06 11:39:10;;;;;;;6.8;9.2;;;;;;;2.1;54.2;99230;;;;
2022/03/06 11:49:10;;;;;;;6.8;9.2;;;;;;;1.9;54;99220;;;;
2022/03/06 12:00:10;;;;;;;6.2;10;;;;;;;1.9;53.8;99210;;;;
2022/03/06 12:10:10;;;;;;;6.2;10;;;;;;;2;53.2;99200;;;;
2022/03/06 12:21:10;;;;;;;6.2;10;;;;;;;2;52.9;99190;;;;
2022/03/06 12:31:10;;;;;;;7.8;10.3;;;;;;;1.6;54.7;99180;;;;
2022/03/06 12:42:10;;;;;;;7.8;10.3;;;;;;;2;53.8;99180;;;;
2022/03/06 12:52:10;;;;;;;7.8;10.3;;;;;;;1.9;53.7;99170;;;;
2022/03/06 13:03:12;;;;;;;7.9;11.8;;;;;;;1.9;54.3;99170;;;;
2022/03/06 13:13:10;;;;;;;7.9;11.8;;;;;;;1.6;55;99170;;;;
2022/03/06 13:24:12;;;;;;;7.9;11.8;;;;;;;1.5;55.2;99160;;;;
2022/03/06 13:34:10;;;;;;;27.3;36.3;;;;;;;1.6;54.4;99160;;;;
2022/03/06 13:44:10;;;;;;;27.3;36.3;;;;;;;1.8;54.2;99160;;;;
2022/03/06 13:55:10;;;;;;;11.7;14;;;;;;;1.7;54.1;99150;;;;
2022/03/06 14:06:10;;;;;;;11.7;14;;;;;;;1.6;54.3;99150;;;;
2022/03/06 14:17:10;;;;;;;11.7;14;;;;;;;1.4;54.4;99140;;;;
2022/03/06 14:27:10;;;;;;;10.8;14.4;;;;;;;1.5;54.8;99150;;;;
2022/03/06 14:37:10;;;;;;;10.8;14.4;;;;;;;1.4;54.5;99150;;;;
2022/03/06 14:47:10;;;;;;;10.8;14.4;;;;;;;1.3;54.7;99140;;;;
2022/03/06 14:57:10;;;;;;;14.2;18.7;;;;;;;1.1;56.9;99150;;;;
2022/03/06 15:07:10;;;;;;;14.2;18.7;;;;;;;1.1;55.9;99140;;;;
2022/03/06 15:18:10;;;;;;;14.2;18.7;;;;;;;1.1;56.1;99140;;;;
2022/03/06 15:29:10;;;;;;;10.1;12.8;;;;;;;1.1;56;99140;;;;
2022/03/06 15:39:10;;;;;;;10.1;12.8;;;;;;;1.1;56.3;99140;;;;
2022/03/06 15:49:10;;;;;;;10.1;12.8;;;;;;;1;56.2;99140;;;;
2022/03/06 15:59:10;;;;;;;18.8;24.3;;;;;;;0.9;57;99150;;;;
2022/03/06 16:10:10;;;;;;;18.8;24.3;;;;;;;0.8;57.5;99160;;;;
2022/03/06 16:20:10;;;;;;;18.8;24.3;;;;;;;0.7;57.2;99160;;;;
2022/03/06 16:31:10;;;;;;;52.7;65.7;;;;;;;0.6;57.6;99160;;;;
2022/03/06 16:41:10;;;;;;;52.7;65.7;;;;;;;0.5;57.3;99160;;;;
2022/03/06 16:52:10;;;;;;;52.7;65.7;;;;;;;0.5;57.3;99170;;;;
2022/03/06 17:02:10;;;;;;;46.7;58;;;;;;;0.4;57.6;99170;;;;
2022/03/06 17:13:10;;;;;;;46.7;58;;;;;;;0.3;57.7;99170;;;;
2022/03/06 17:24:10;;;;;;;46.7;58;;;;;;;0.2;57.8;99180;;;;
2022/03/06 17:34:10;;;;;;;17.9;21.7;;;;;;;0.2;58;99190;;;;
2022/03/06 17:45:10;;;;;;;17.9;21.7;;;;;;;0.1;58.2;99180;;;;
2022/03/06 17:56:10;;;;;;;21.7;28.9;;;;;;;0;58.5;99170;;;;
2022/03/06 18:07:10;;;;;;;21.7;28.9;;;;;;;0;58.5;99180;;;;
2022/03/06 18:18:10;;;;;;;21.7;28.9;;;;;;;0;58.2;99180;;;;
2022/03/06 18:28:10;;;;;;;14.2;19.1;;;;;;;0;58.5;99180;;;;
2022/03/06 18:38:10;;;;;;;14.2;19.1;;;;;;;-0.1;58.3;99180;;;;
2022/03/06 18:49:10;;;;;;;14.2;19.1;;;;;;;0;58.3;99190;;;;
2022/03/06 18:59:10;;;;;;;19;21.9;;;;;;;-0.1;58.4;99190;;;;
2022/03/06 19:09:11;;;;;;;19;21.9;;;;;;;-0.1;58.3;99180;;;;
2022/03/06 19:19:10;;;;;;;19;21.9;;;;;;;-0.1;58;99180;;;;
2022/03/06 19:29:11;;;;;;;35.7;44.3;;;;;;;-0.1;58;99180;;;;
2022/03/06 19:39:11;;;;;;;35.7;44.3;;;;;;;-0.2;58;99180;;;;
2022/03/06 19:50:10;;;;;;;35.7;44.3;;;;;;;-0.2;58.8;99170;;;;
2022/03/06 20:01:11;;;;;;;25.4;34.1;;;;;;;-0.2;58;99180;;;;
2022/03/06 20:11:10;;;;;;;25.4;34.1;;;;;;;-0.3;61;99180;;;;
2022/03/06 20:21:10;;;;;;;25.4;34.1;;;;;;;-0.3;60.4;99190;;;;
2022/03/06 20:31:10;;;;;;;31.6;38.6;;;;;;;-0.3;59;99190;;;;
2022/03/06 20:42:10;;;;;;;31.6;38.6;;;;;;;-0.3;57.9;99200;;;;
2022/03/06 20:52:10;;;;;;;31.6;38.6;;;;;;;-0.3;58.5;99200;;;;
2022/03/06 21:03:10;;;;;;;48.7;59.8;;;;;;;-0.3;59.9;99200;;;;
2022/03/06 21:14:10;;;;;;;48.7;59.8;;;;;;;-0.4;59.1;99190;;;;
2022/03/06 21:25:10;;;;;;;23.3;27.3;;;;;;;-0.3;59;99200;;;;
2022/03/06 21:35:10;;;;;;;23.3;27.3;;;;;;;-0.4;58.8;99200;;;;
2022/03/06 21:46:10;;;;;;;23.3;27.3;;;;;;;-0.4;57.9;99200;;;;
2022/03/06 21:56:10;;;;;;;27.5;32.3;;;;;;;-0.4;58.2;99200;;;;
2022/03/06 22:06:10;;;;;;;27.5;32.3;;;;;;;-0.4;59;99200;;;;
2022/03/06 22:17:10;;;;;;;27.5;32.3;;;;;;;-0.4;59.5;99200;;;;
2022/03/06 22:27:11;;;;;;;22.7;25.9;;;;;;;-0.4;58.5;99200;;;;
2022/03/06 22:38:14;;;;;;;22.7;25.9;;;;;;;-0.4;58.7;99200;;;;
2022/03/06 22:48:10;;;;;;;22.7;25.9;;;;;;;-0.4;58.7;99200;;;;
2022/03/06 22:59:10;;;;;;;22;25.3;;;;;;;-0.5;58.6;99190;;;;
2022/03/06 23:09:10;;;;;;;22;25.3;;;;;;;-0.5;58.1;99190;;;;
2022/03/06 23:19:10;;;;;;;22;25.3;;;;;;;-0.5;58.6;99190;;;;
2022/03/06 23:30:11;;;;;;;25.9;32.3;;;;;;;-0.6;57.8;99190;;;;
2022/03/06 23:41:10;;;;;;;25.9;32.3;;;;;;;-0.5;60.2;99180;;;;
2022/03/06 23:51:10;;;;;;;25.9;32.3;;;;;;;-0.5;62.6;99190;;;;
